createdAt,value
2022-11-16T00:02:19.327Z,28.75
2022-11-16T00:04:48.777Z,29.23
2022-11-16T00:07:18.018Z,31.15
2022-11-16T00:09:47.965Z,26.73
2022-11-16T00:12:18.415Z,25.63
2022-11-16T00:14:47.731Z,24.20
2022-11-16T00:17:16.850Z,23.40
2022-11-16T00:19:46.284Z,22.33
2022-11-16T00:22:15.427Z,24.20
2022-11-16T00:24:44.791Z,24.92
2022-11-16T00:27:14.182Z,23.45
2022-11-16T00:29:44.984Z,23.55
2022-11-16T00:32:14.177Z,22.65
2022-11-16T00:34:43.532Z,20.43
2022-11-16T00:37:12.589Z,22.02
2022-11-16T00:39:42.083Z,23.17
2022-11-16T00:42:14.976Z,21.60
2022-11-16T00:44:45.760Z,20.80
2022-11-16T00:47:14.809Z,21.38
2022-11-16T00:49:44.200Z,21.00
2022-11-16T00:52:13.303Z,19.45
2022-11-16T00:54:42.699Z,20.13
2022-11-16T00:57:12.217Z,18.75
2022-11-16T00:59:41.704Z,19.10
2022-11-16T01:02:12.212Z,18.73
2022-11-16T01:04:43.639Z,17.45
2022-11-16T01:07:12.778Z,19.00
2022-11-16T01:09:43.310Z,18.75
2022-11-16T01:12:12.684Z,17.52
2022-11-16T01:14:45.519Z,16.95
2022-11-16T01:17:16.144Z,17.80
2022-11-16T01:19:45.554Z,17.42
2022-11-16T01:22:14.825Z,17.88
2022-11-16T01:24:44.237Z,17.07
2022-11-16T01:27:13.629Z,18.35
2022-11-16T01:29:46.666Z,17.40
2022-11-16T01:32:17.567Z,18.02
2022-11-16T01:34:46.971Z,17.33
2022-11-16T01:37:25.411Z,18.23
2022-11-16T01:39:54.859Z,15.07
2022-11-16T01:42:27.277Z,15.88
2022-11-16T01:45:03.155Z,12.13
2022-11-16T01:47:34.054Z,11.45
2022-11-16T01:50:11.264Z,11.60
2022-11-16T01:52:47.406Z,11.80
2022-11-16T01:55:17.026Z,11.27
2022-11-16T01:58:07.172Z,11.75
2022-11-16T02:00:38.362Z,11.00
2022-11-16T02:03:27.812Z,11.25
2022-11-16T02:09:42.604Z,7.63
2022-11-16T02:12:24.064Z,6.50
2022-11-16T02:15:10.681Z,6.00
2022-11-16T02:17:49.702Z,5.32
2022-11-16T02:20:43.620Z,4.03
2022-11-16T02:23:37.650Z,3.55
2022-11-16T02:26:23.231Z,3.20
2022-11-16T02:29:11.855Z,2.75
2022-11-16T02:31:46.280Z,2.55
2022-11-16T02:34:18.778Z,2.35
2022-11-16T02:36:50.944Z,2.20
2022-11-16T02:39:25.825Z,2.47
2022-11-16T02:41:55.763Z,2.00
2022-11-16T02:44:33.547Z,1.88
2022-11-16T02:47:06.644Z,1.63
2022-11-16T02:49:39.306Z,1.55
2022-11-16T02:52:09.019Z,1.27
2022-11-16T02:54:38.347Z,1.30
2022-11-16T02:57:37.980Z,1.42
2022-11-16T03:00:13.835Z,1.30
2022-11-16T03:02:49.714Z,1.20
2022-11-16T03:05:31.927Z,1.10
2022-11-16T03:08:13.610Z,0.95
2022-11-16T03:11:02.745Z,0.90
2022-11-16T03:13:34.808Z,0.88
2022-11-16T03:16:11.422Z,0.80
2022-11-16T03:18:42.841Z,0.88
2022-11-16T03:21:19.154Z,0.80
2022-11-16T03:23:48.531Z,0.77
2022-11-16T03:26:23.895Z,0.80
2022-11-16T03:29:01.398Z,0.80
2022-11-16T03:31:39.033Z,0.70
2022-11-16T03:34:16.258Z,0.60
2022-11-16T03:36:49.394Z,0.80
2022-11-16T03:39:23.162Z,0.60
2022-11-16T03:41:52.848Z,0.65
2022-11-16T03:44:22.756Z,0.70
2022-11-16T03:46:53.475Z,0.70
2022-11-16T03:49:23.891Z,0.65
2022-11-16T03:51:55.455Z,0.80
2022-11-16T03:54:26.402Z,0.68
2022-11-16T03:56:55.689Z,0.65
2022-11-16T03:59:25.190Z,0.50
2022-11-16T04:01:55.868Z,0.80
2022-11-16T04:04:42.024Z,0.80
2022-11-16T04:07:29.197Z,0.80
2022-11-16T04:10:15.543Z,0.70
2022-11-16T04:13:04.206Z,0.90
2022-11-16T04:15:50.573Z,0.65
2022-11-16T04:18:38.726Z,0.70
2022-11-16T04:21:27.717Z,1.00
2022-11-16T04:24:15.061Z,0.80
2022-11-16T04:27:05.340Z,0.60
2022-11-16T04:29:36.126Z,0.68
2022-11-16T04:32:24.379Z,0.75
2022-11-16T04:35:15.245Z,0.77
2022-11-16T04:37:52.599Z,0.90
2022-11-16T04:40:30.477Z,1.02
2022-11-16T04:43:03.319Z,1.10
2022-11-16T04:45:54.381Z,0.80
2022-11-16T04:48:27.461Z,0.80
2022-11-16T04:53:28.410Z,0.75
2022-11-16T04:56:06.022Z,0.75
2022-11-16T04:58:36.062Z,0.70
2022-11-16T05:01:05.826Z,0.80
2022-11-16T05:03:35.343Z,1.70
2022-11-16T05:06:06.294Z,0.70
2022-11-16T05:08:36.509Z,0.80
2022-11-16T05:11:07.565Z,0.90
2022-11-16T05:13:36.549Z,0.80
2022-11-16T05:16:06.214Z,0.90
2022-11-16T05:18:35.594Z,1.30
2022-11-16T05:21:06.568Z,0.80
2022-11-16T05:23:56.733Z,1.00
2022-11-16T05:26:30.483Z,1.00
2022-11-16T05:28:59.580Z,0.80
2022-11-16T05:31:29.091Z,0.93
2022-11-16T05:33:58.182Z,0.80
2022-11-16T05:36:28.868Z,0.80
2022-11-16T05:38:57.898Z,0.70
2022-11-16T05:41:30.307Z,0.82
2022-11-16T05:46:29.824Z,0.75
2022-11-16T05:49:01.726Z,0.90
2022-11-16T05:51:32.446Z,0.80
2022-11-16T05:54:01.513Z,0.80
2022-11-16T05:56:31.859Z,0.97
2022-11-16T05:59:01.280Z,1.05
2022-11-16T06:01:31.091Z,1.08
2022-11-16T06:04:01.465Z,1.00
2022-11-16T06:06:33.812Z,1.00
2022-11-16T06:09:03.142Z,0.85
2022-11-16T06:11:36.246Z,0.80
2022-11-16T06:14:06.592Z,0.80
2022-11-16T06:16:37.275Z,0.85
2022-11-16T06:19:09.673Z,0.70
2022-11-16T06:21:40.772Z,0.70
2022-11-16T06:24:15.706Z,0.85
2022-11-16T06:26:47.114Z,0.77
2022-11-16T06:29:16.089Z,0.70
2022-11-16T06:31:45.483Z,0.60
2022-11-16T06:34:24.729Z,0.60
2022-11-16T06:36:55.588Z,0.60
2022-11-16T06:39:24.658Z,0.60
2022-11-16T06:41:54.538Z,0.47
2022-11-16T06:44:23.649Z,0.50
2022-11-16T06:46:59.287Z,0.70
2022-11-16T06:49:28.519Z,0.70
2022-11-16T06:52:03.097Z,0.80
2022-11-16T06:54:33.056Z,1.02
2022-11-16T06:57:02.450Z,1.07
2022-11-16T06:59:31.533Z,0.98
2022-11-16T07:02:01.056Z,0.93
2022-11-16T07:04:34.007Z,1.05
2022-11-16T07:07:06.319Z,1.35
2022-11-16T07:09:37.241Z,1.45
2022-11-16T07:12:07.143Z,1.05
2022-11-16T07:14:39.613Z,1.40
2022-11-16T07:17:11.267Z,1.13
2022-11-16T07:19:40.907Z,1.20
2022-11-16T07:22:11.798Z,1.05
2022-11-16T07:24:41.219Z,1.17
2022-11-16T07:27:12.172Z,1.20
2022-11-16T07:29:46.198Z,1.00
2022-11-16T07:32:36.205Z,1.00
2022-11-16T07:35:11.604Z,1.08
2022-11-16T07:37:43.382Z,1.02
2022-11-16T07:40:13.838Z,1.23
2022-11-16T07:42:43.648Z,1.30
2022-11-16T07:45:31.045Z,1.13
2022-11-16T07:48:06.940Z,1.17
2022-11-16T07:50:54.660Z,1.10
2022-11-16T07:53:26.524Z,1.67
2022-11-16T07:55:55.759Z,1.30
2022-11-16T07:58:28.348Z,1.10
2022-11-16T08:01:05.987Z,1.52
2022-11-16T08:03:37.372Z,1.10
2022-11-16T08:06:12.212Z,1.13
2022-11-16T08:08:43.343Z,0.98
2022-11-16T08:11:14.486Z,1.17
2022-11-16T08:13:44.948Z,1.00
2022-11-16T08:16:16.479Z,1.23
2022-11-16T08:18:47.932Z,1.05
2022-11-16T08:21:19.965Z,0.98
2022-11-16T08:23:56.780Z,0.88
2022-11-16T08:26:27.613Z,1.13
2022-11-16T08:29:02.550Z,0.98
2022-11-16T08:31:36.082Z,0.80
2022-11-16T08:34:13.736Z,0.77
2022-11-16T08:36:46.832Z,0.80
2022-11-16T08:39:17.639Z,0.80
2022-11-16T08:41:46.691Z,0.55
2022-11-16T08:44:18.030Z,0.60
2022-11-16T08:46:51.218Z,0.50
2022-11-16T08:49:45.169Z,0.55
2022-11-16T08:52:17.624Z,0.57
2022-11-16T08:54:48.656Z,0.70
2022-11-16T08:57:18.741Z,1.90
2022-11-16T08:59:51.339Z,1.08
2022-11-16T09:02:25.443Z,0.60
2022-11-16T09:04:55.335Z,0.75
2022-11-16T09:07:24.463Z,0.80
2022-11-16T09:09:55.376Z,0.70
2022-11-16T09:12:24.568Z,0.80
2022-11-16T09:14:53.842Z,0.90
2022-11-16T09:17:23.457Z,0.90
2022-11-16T09:19:53.008Z,1.02
2022-11-16T09:22:22.239Z,0.80
2022-11-16T09:24:52.084Z,0.70
2022-11-16T09:27:23.037Z,0.70
2022-11-16T09:29:53.323Z,1.00
2022-11-16T09:32:22.335Z,1.02
2022-11-16T09:34:51.623Z,1.20
2022-11-16T09:37:20.623Z,1.10
2022-11-16T09:39:49.914Z,1.20
2022-11-16T09:42:32.880Z,1.40
2022-11-16T09:45:06.315Z,1.20
2022-11-16T09:47:44.747Z,1.20
2022-11-16T09:50:29.600Z,1.40
2022-11-16T09:53:06.141Z,1.38
2022-11-16T09:55:40.512Z,1.40
2022-11-16T09:58:17.290Z,1.80
2022-11-16T10:00:53.682Z,1.58
2022-11-16T10:03:23.080Z,1.58
2022-11-16T10:05:58.482Z,1.60
2022-11-16T10:08:36.548Z,1.60
2022-11-16T10:11:27.042Z,1.30
2022-11-16T10:14:09.396Z,1.20
2022-11-16T10:16:44.837Z,1.23
2022-11-16T10:19:20.883Z,1.13
2022-11-16T10:21:56.741Z,0.85
2022-11-16T10:24:37.495Z,1.10
2022-11-16T10:27:28.656Z,1.00
2022-11-16T10:30:09.246Z,0.95
2022-11-16T10:32:42.220Z,1.23
2022-11-16T10:35:19.841Z,1.20
2022-11-16T10:37:51.087Z,1.00
2022-11-16T10:40:24.556Z,0.82
2022-11-16T10:43:05.735Z,1.10
2022-11-16T10:45:41.372Z,1.10
2022-11-16T10:48:22.910Z,1.20
2022-11-16T10:50:53.430Z,1.08
2022-11-16T10:53:29.498Z,1.00
2022-11-16T10:56:12.723Z,1.10
2022-11-16T10:59:07.221Z,1.02
2022-11-16T11:01:40.140Z,1.10
2022-11-16T11:04:22.004Z,1.00
2022-11-16T11:06:53.179Z,1.10
2022-11-16T11:09:26.380Z,1.15
2022-11-16T11:12:22.070Z,0.90
2022-11-16T11:15:03.614Z,0.95
2022-11-16T11:17:36.411Z,0.98
2022-11-16T11:20:08.463Z,1.20
2022-11-16T11:22:45.083Z,0.88
2022-11-16T11:25:22.989Z,1.00
2022-11-16T11:27:53.843Z,1.35
2022-11-16T11:30:23.966Z,1.30
2022-11-16T11:32:54.364Z,1.45
2022-11-16T11:35:28.849Z,1.65
2022-11-16T11:38:04.808Z,1.10
2022-11-16T11:40:36.865Z,1.00
2022-11-16T11:43:07.291Z,1.33
2022-11-16T11:45:49.014Z,1.13
2022-11-16T11:48:31.759Z,1.30
2022-11-16T11:51:10.031Z,1.20
2022-11-16T11:53:55.707Z,1.30
2022-11-16T11:56:26.254Z,1.00
2022-11-16T12:01:49.268Z,1.48
2022-11-16T12:05:08.954Z,2.40
2022-11-16T12:07:52.778Z,2.15
2022-11-16T12:10:29.721Z,1.85
2022-11-16T12:13:11.853Z,2.10
2022-11-16T12:16:03.852Z,1.25
2022-11-16T12:18:47.499Z,1.55
2022-11-16T12:21:32.759Z,1.45
2022-11-16T12:24:23.461Z,1.40
2022-11-16T12:29:34.682Z,1.05
2022-11-16T12:32:22.986Z,1.70
2022-11-16T12:35:27.849Z,1.45
2022-11-16T12:38:07.457Z,1.30
2022-11-16T12:40:50.256Z,1.25
2022-11-16T12:43:24.808Z,1.58
2022-11-16T12:46:12.330Z,1.60
2022-11-16T12:49:11.402Z,1.17
2022-11-16T12:51:53.670Z,1.40
2022-11-16T12:54:52.418Z,1.30
2022-11-16T12:57:38.089Z,1.20
2022-11-16T13:00:10.279Z,1.60
2022-11-16T13:03:03.582Z,1.27
2022-11-16T13:05:53.693Z,1.30
2022-11-16T13:11:10.230Z,1.30
2022-11-16T13:13:41.610Z,1.30
2022-11-16T13:16:17.080Z,1.48
2022-11-16T13:18:46.525Z,1.85
2022-11-16T13:21:26.638Z,1.50
2022-11-16T13:24:08.002Z,1.50
2022-11-16T13:26:49.636Z,1.52
2022-11-16T13:29:30.311Z,1.67
2022-11-16T13:32:06.940Z,1.90
2022-11-16T13:34:39.197Z,2.00
2022-11-16T13:37:41.155Z,1.60
2022-11-16T13:40:27.664Z,1.48
2022-11-16T13:43:19.404Z,1.30
2022-11-16T13:46:01.913Z,1.50
2022-11-16T13:48:34.851Z,1.95
2022-11-16T13:51:07.104Z,1.40
2022-11-16T13:56:47.255Z,1.73
2022-11-16T13:59:24.990Z,1.92
2022-11-16T14:01:58.793Z,1.60
2022-11-16T14:04:42.846Z,1.80
2022-11-16T14:07:42.892Z,1.70
2022-11-16T14:10:13.660Z,2.05
2022-11-16T14:12:53.434Z,2.17
2022-11-16T14:15:35.159Z,1.58
2022-11-16T14:18:37.145Z,2.10
2022-11-16T14:21:26.670Z,2.08
2022-11-16T14:24:20.480Z,2.10
2022-11-16T14:27:05.443Z,2.00
2022-11-16T14:29:55.343Z,2.38
2022-11-16T14:32:28.167Z,2.05
2022-11-16T14:34:59.989Z,1.85
2022-11-16T14:37:39.958Z,3.67
2022-11-16T14:43:10.027Z,1.85
2022-11-16T14:45:40.612Z,1.75
2022-11-16T14:48:18.791Z,2.00
2022-11-16T14:51:00.155Z,1.83
2022-11-16T14:53:30.414Z,2.13
2022-11-16T14:56:09.861Z,2.30
2022-11-16T14:58:39.494Z,2.78
2022-11-16T15:01:14.793Z,2.30
2022-11-16T15:03:55.731Z,2.30
2022-11-16T15:06:27.910Z,2.60
2022-11-16T15:09:00.378Z,1.90
2022-11-16T15:11:47.137Z,1.40
2022-11-16T15:14:20.756Z,1.45
2022-11-16T15:16:52.866Z,1.85
2022-11-16T15:19:24.034Z,1.67
2022-11-16T15:21:54.718Z,1.35
2022-11-16T15:24:32.633Z,1.30
2022-11-16T15:27:20.052Z,1.50
2022-11-16T15:29:49.811Z,1.77
2022-11-16T15:32:19.535Z,3.75
2022-11-16T15:34:54.336Z,1.60
2022-11-16T15:37:30.811Z,1.30
2022-11-16T15:40:00.683Z,1.63
2022-11-16T15:42:30.736Z,1.67
2022-11-16T15:45:03.839Z,1.33
2022-11-16T15:47:33.109Z,1.60
2022-11-16T15:50:03.512Z,2.10
2022-11-16T15:52:47.175Z,1.45
2022-11-16T15:55:35.046Z,1.50
2022-11-16T15:58:19.331Z,1.23
2022-11-16T16:00:49.603Z,1.10
2022-11-16T16:03:23.177Z,1.27
2022-11-16T16:05:54.407Z,1.15
2022-11-16T16:08:30.219Z,1.50
2022-11-16T16:11:04.754Z,1.60
2022-11-16T16:13:36.478Z,1.38
2022-11-16T16:16:31.374Z,1.20
2022-11-16T16:19:08.358Z,1.17
2022-11-16T16:21:45.863Z,1.38
2022-11-16T16:24:41.229Z,1.30
2022-11-16T16:27:18.614Z,1.50
2022-11-16T16:29:49.272Z,1.58
2022-11-16T16:32:25.245Z,1.60
2022-11-16T16:34:55.726Z,1.50
2022-11-16T16:37:28.500Z,1.50
2022-11-16T16:39:58.016Z,1.63
2022-11-16T16:42:26.996Z,1.80
2022-11-16T16:44:56.268Z,1.60
2022-11-16T16:47:25.220Z,2.05
2022-11-16T16:49:54.560Z,1.85
2022-11-16T16:52:25.235Z,2.65
2022-11-16T16:54:54.468Z,2.58
2022-11-16T16:57:23.413Z,2.08
2022-11-16T16:59:52.681Z,2.05
2022-11-16T17:02:21.752Z,2.20
2022-11-16T17:04:51.006Z,2.30
2022-11-16T17:07:20.012Z,1.50
2022-11-16T17:09:50.666Z,2.00
2022-11-16T17:14:51.780Z,2.38
2022-11-16T17:17:21.235Z,1.70
2022-11-16T17:19:50.483Z,1.45
2022-11-16T17:22:20.383Z,1.85
2022-11-16T17:24:51.019Z,2.20
2022-11-16T17:29:48.976Z,1.92
2022-11-16T17:32:17.934Z,1.90
2022-11-16T17:34:48.173Z,1.88
2022-11-16T17:37:17.136Z,1.48
2022-11-16T17:39:46.395Z,1.60
2022-11-16T17:42:16.757Z,1.45
2022-11-16T17:44:46.115Z,2.10
2022-11-16T17:47:15.050Z,2.17
2022-11-16T17:49:44.296Z,2.20
2022-11-16T17:52:13.246Z,2.13
2022-11-16T17:54:42.514Z,2.10
2022-11-16T17:57:11.736Z,1.70
2022-11-16T17:59:42.407Z,3.03
2022-11-16T18:04:41.136Z,3.00
2022-11-16T18:07:10.753Z,3.47
2022-11-16T18:09:40.158Z,3.80
2022-11-16T18:12:09.197Z,3.15
2022-11-16T18:14:38.447Z,3.20
2022-11-16T18:17:10.075Z,3.17
2022-11-16T18:19:39.715Z,3.90
2022-11-16T18:22:34.550Z,3.50
2022-11-16T18:25:20.626Z,3.83
2022-11-16T18:27:53.380Z,4.25
2022-11-16T18:30:25.000Z,3.03
2022-11-16T18:32:55.651Z,2.60
2022-11-16T18:35:29.069Z,2.60
2022-11-16T18:37:58.547Z,3.10
2022-11-16T18:40:27.841Z,2.25
2022-11-16T18:42:59.723Z,2.10
2022-11-16T18:45:51.534Z,2.33
2022-11-16T18:48:25.921Z,2.10
2022-11-16T18:51:49.198Z,1.90
2022-11-16T18:54:46.417Z,2.03
2022-11-16T18:57:16.456Z,1.90
2022-11-16T18:59:45.541Z,1.90
2022-11-16T19:02:14.802Z,1.60
2022-11-16T19:04:45.630Z,1.73
2022-11-16T19:07:14.911Z,1.88
2022-11-16T19:09:43.868Z,1.75
2022-11-16T19:12:13.117Z,1.90
2022-11-16T19:14:42.071Z,1.70
2022-11-16T19:17:11.321Z,1.80
2022-11-16T19:19:40.557Z,1.90
2022-11-16T19:22:11.200Z,2.00
2022-11-16T19:27:09.184Z,2.22
2022-11-16T19:29:38.143Z,2.15
2022-11-16T19:32:07.491Z,2.05
2022-11-16T19:34:36.427Z,1.80
2022-11-16T19:37:05.921Z,1.95
2022-11-16T19:39:37.528Z,2.17
2022-11-16T19:42:07.038Z,1.90
2022-11-16T19:44:35.985Z,2.67
2022-11-16T19:47:06.310Z,2.13
2022-11-16T19:49:35.275Z,2.10
2022-11-16T19:52:05.192Z,2.30
2022-11-16T19:54:34.159Z,2.30
2022-11-16T19:57:04.860Z,2.28
2022-11-16T19:59:33.832Z,2.05
2022-11-16T20:02:03.304Z,2.28
2022-11-16T20:04:34.375Z,2.00
2022-11-16T20:07:03.681Z,1.80
2022-11-16T20:09:32.711Z,1.77
2022-11-16T20:12:03.354Z,1.63
2022-11-16T20:14:32.380Z,1.70
2022-11-16T20:17:01.640Z,1.83
2022-11-16T20:19:30.621Z,1.70
2022-11-16T20:22:00.558Z,1.60
2022-11-16T20:24:29.497Z,2.40
2022-11-16T20:26:59.033Z,2.42
2022-11-16T20:29:29.625Z,2.15
2022-11-16T20:31:59.922Z,2.15
2022-11-16T20:34:28.855Z,2.55
2022-11-16T20:36:58.069Z,1.80
2022-11-16T20:39:27.053Z,1.92
2022-11-16T20:41:56.273Z,2.10
2022-11-16T20:44:25.830Z,2.28
2022-11-16T20:46:56.681Z,2.55
2022-11-16T20:49:25.603Z,2.20
2022-11-16T20:51:54.863Z,2.35
2022-11-16T20:54:24.451Z,1.90
2022-11-16T20:56:53.729Z,1.70
2022-11-16T20:59:22.682Z,1.80
2022-11-16T21:01:56.038Z,1.50
2022-11-16T21:04:27.275Z,2.50
2022-11-16T21:06:56.603Z,2.00
2022-11-16T21:09:25.799Z,1.92
2022-11-16T21:12:12.408Z,2.08
2022-11-16T21:14:41.362Z,2.10
2022-11-16T21:17:10.598Z,2.60
2022-11-16T21:19:54.301Z,2.30
2022-11-16T21:22:32.820Z,2.22
2022-11-16T21:25:02.275Z,2.30
2022-11-16T21:27:31.516Z,1.83
2022-11-16T21:30:00.472Z,2.00
2022-11-16T21:32:29.826Z,2.33
2022-11-16T21:35:00.526Z,1.90
2022-11-16T21:37:29.758Z,1.90
2022-11-16T21:39:58.692Z,2.00
2022-11-16T21:42:27.934Z,2.17
2022-11-16T21:44:56.864Z,2.10
2022-11-16T21:47:26.104Z,1.92
2022-11-16T21:50:24.850Z,2.17
2022-11-16T21:52:46.427Z,1.50
2022-11-16T21:55:15.506Z,1.60
2022-11-16T21:57:44.732Z,1.80
2022-11-16T22:00:14.699Z,1.83
2022-11-16T22:02:43.919Z,1.88
2022-11-16T22:05:30.386Z,1.98
2022-11-16T22:08:06.087Z,2.10
2022-11-16T22:10:35.088Z,2.20
2022-11-16T22:13:04.598Z,1.70
2022-11-16T22:15:33.600Z,3.08
2022-11-16T22:18:03.988Z,2.85
2022-11-16T22:20:33.292Z,2.35
2022-11-16T22:23:03.892Z,3.70
2022-11-16T22:25:33.461Z,4.38
2022-11-16T22:30:59.630Z,2.45
2022-11-16T22:33:30.555Z,2.60
2022-11-16T22:36:00.517Z,1.92
2022-11-16T22:38:31.004Z,2.10
2022-11-16T22:41:00.422Z,1.80
2022-11-16T22:43:31.343Z,1.85
2022-11-16T22:46:01.886Z,2.80
2022-11-16T22:48:32.440Z,1.95
2022-11-16T22:51:06.688Z,1.55
2022-11-16T22:53:37.900Z,1.33
2022-11-16T22:56:09.455Z,1.38
2022-11-16T22:58:39.326Z,1.42
2022-11-16T23:01:09.997Z,2.08
2022-11-16T23:06:09.252Z,2.10
2022-11-16T23:08:41.066Z,1.80
2022-11-16T23:11:29.929Z,1.90
2022-11-16T23:14:16.497Z,1.58
2022-11-16T23:16:46.553Z,1.90
2022-11-16T23:19:35.158Z,1.60
2022-11-16T23:22:22.742Z,1.65
2022-11-16T23:25:10.888Z,1.60
2022-11-16T23:27:45.039Z,1.75
2022-11-16T23:30:14.840Z,1.60
2022-11-16T23:32:44.185Z,2.03
2022-11-16T23:35:13.807Z,2.25
2022-11-16T23:37:54.152Z,1.98
2022-11-16T23:40:26.042Z,2.03
2022-11-16T23:43:13.680Z,1.83
2022-11-16T23:45:44.028Z,1.55
2022-11-16T23:48:14.978Z,1.70
2022-11-16T23:50:45.178Z,2.00
2022-11-16T23:53:15.253Z,1.85
2022-11-16T23:55:45.645Z,1.95
2022-11-16T23:58:16.564Z,1.98
